sensor_id;sensor_type;location;lat;lon;timestamp;pressure;altitude;pressure_sealevel;temperature;humidity
65718;BME280;52445;52.466;-1.016;2023-02-28T00:01:29;101945.56;;;4.86;73.62
65718;BME280;52445;52.466;-1.016;2023-02-28T00:03:57;101948.13;;;4.86;73.43
65718;BME280;52445;52.466;-1.016;2023-02-28T00:06:24;101935.13;;;4.83;73.63
65718;BME280;52445;52.466;-1.016;2023-02-28T00:08:53;101940.09;;;4.80;73.95
65718;BME280;52445;52.466;-1.016;2023-02-28T00:11:20;101941.72;;;4.78;74.38
65718;BME280;52445;52.466;-1.016;2023-02-28T00:13:47;101943.31;;;4.76;74.16
65718;BME280;52445;52.466;-1.016;2023-02-28T00:16:18;101945.09;;;4.77;73.63
65718;BME280;52445;52.466;-1.016;2023-02-28T00:18:45;101937.38;;;4.77;74.37
65718;BME280;52445;52.466;-1.016;2023-02-28T00:21:16;101946.84;;;4.78;74.61
65718;BME280;52445;52.466;-1.016;2023-02-28T00:23:43;101949.50;;;4.80;74.24
65718;BME280;52445;52.466;-1.016;2023-02-28T00:26:10;101951.34;;;4.82;74.38
65718;BME280;52445;52.466;-1.016;2023-02-28T00:28:36;101953.91;;;4.82;73.59
65718;BME280;52445;52.466;-1.016;2023-02-28T00:31:03;101946.28;;;4.84;74.03
65718;BME280;52445;52.466;-1.016;2023-02-28T00:33:30;101956.63;;;4.85;74.42
65718;BME280;52445;52.466;-1.016;2023-02-28T00:36:12;101952.31;;;4.84;74.51
65718;BME280;52445;52.466;-1.016;2023-02-28T00:38:40;101949.09;;;4.88;74.08
65718;BME280;52445;52.466;-1.016;2023-02-28T00:41:08;101954.22;;;4.88;73.95
65718;BME280;52445;52.466;-1.016;2023-02-28T00:43:37;101957.75;;;4.91;74.03
65718;BME280;52445;52.466;-1.016;2023-02-28T00:46:04;101959.50;;;4.92;74.10
65718;BME280;52445;52.466;-1.016;2023-02-28T00:48:31;101958.72;;;4.93;73.92
65718;BME280;52445;52.466;-1.016;2023-02-28T00:50:58;101965.69;;;4.95;74.54
65718;BME280;52445;52.466;-1.016;2023-02-28T00:53:25;101961.44;;;4.96;74.23
65718;BME280;52445;52.466;-1.016;2023-02-28T00:55:52;101954.59;;;4.96;74.41
65718;BME280;52445;52.466;-1.016;2023-02-28T00:58:19;101962.41;;;4.98;74.15
65718;BME280;52445;52.466;-1.016;2023-02-28T01:00:46;101964.16;;;4.99;74.11
65718;BME280;52445;52.466;-1.016;2023-02-28T01:03:17;101957.41;;;5.01;74.53
65718;BME280;52445;52.466;-1.016;2023-02-28T01:05:45;101970.25;;;5.01;74.14
65718;BME280;52445;52.466;-1.016;2023-02-28T01:08:13;101968.63;;;5.03;74.19
65718;BME280;52445;52.466;-1.016;2023-02-28T01:10:40;101963.50;;;5.03;74.94
65718;BME280;52445;52.466;-1.016;2023-02-28T01:13:07;101966.16;;;5.05;74.23
65718;BME280;52445;52.466;-1.016;2023-02-28T01:15:34;101968.81;;;5.06;74.57
65718;BME280;52445;52.466;-1.016;2023-02-28T01:18:01;101970.56;;;5.07;74.60
65718;BME280;52445;52.466;-1.016;2023-02-28T01:20:28;101974.91;;;5.08;74.78
65718;BME280;52445;52.466;-1.016;2023-02-28T01:22:57;101975.00;;;5.10;74.66
65718;BME280;52445;52.466;-1.016;2023-02-28T01:25:25;101978.44;;;5.10;75.16
65718;BME280;52445;52.466;-1.016;2023-02-28T01:27:54;101974.25;;;5.12;74.65
65718;BME280;52445;52.466;-1.016;2023-02-28T01:30:22;101976.84;;;5.12;74.41
65718;BME280;52445;52.466;-1.016;2023-02-28T01:32:50;101969.13;;;5.12;74.72
65718;BME280;52445;52.466;-1.016;2023-02-28T01:35:20;101976.91;;;5.14;75.18
65718;BME280;52445;52.466;-1.016;2023-02-28T01:37:49;101975.19;;;5.14;74.52
65718;BME280;52445;52.466;-1.016;2023-02-28T01:40:17;101974.25;;;5.12;75.09
65718;BME280;52445;52.466;-1.016;2023-02-28T01:42:46;101978.50;;;5.12;75.41
65718;BME280;52445;52.466;-1.016;2023-02-28T01:47:56;101980.22;;;5.11;74.58
65718;BME280;52445;52.466;-1.016;2023-02-28T01:50:28;101981.81;;;5.09;74.96
65718;BME280;52445;52.466;-1.016;2023-02-28T01:53:00;101975.84;;;5.10;75.53
65718;BME280;52445;52.466;-1.016;2023-02-28T01:55:28;101981.00;;;5.10;75.28
65718;BME280;52445;52.466;-1.016;2023-02-28T01:57:57;101978.50;;;5.12;74.89
65718;BME280;52445;52.466;-1.016;2023-02-28T02:00:26;101979.41;;;5.12;75.02
65718;BME280;52445;52.466;-1.016;2023-02-28T02:02:57;101981.16;;;5.13;74.91
65718;BME280;52445;52.466;-1.016;2023-02-28T02:05:28;101980.34;;;5.14;74.62
65718;BME280;52445;52.466;-1.016;2023-02-28T02:08:02;101972.63;;;5.14;74.86
65718;BME280;52445;52.466;-1.016;2023-02-28T02:10:35;101975.19;;;5.14;75.39
65718;BME280;52445;52.466;-1.016;2023-02-28T02:19:09;101972.63;;;5.14;75.25
65718;BME280;52445;52.466;-1.016;2023-02-28T02:35:24;101972.56;;;5.13;74.53
65718;BME280;52445;52.466;-1.016;2023-02-28T02:41:00;101963.16;;;5.13;75.40
65718;BME280;52445;52.466;-1.016;2023-02-28T02:43:34;101968.38;;;5.15;75.26
65718;BME280;52445;52.466;-1.016;2023-02-28T02:46:07;101969.28;;;5.16;74.70
65718;BME280;52445;52.466;-1.016;2023-02-28T02:48:38;101967.66;;;5.18;75.27
65718;BME280;52445;52.466;-1.016;2023-02-28T02:51:11;101965.91;;;5.17;74.93
65718;BME280;52445;52.466;-1.016;2023-02-28T02:53:46;101958.19;;;5.17;74.90
65718;BME280;52445;52.466;-1.016;2023-02-28T02:56:22;101957.22;;;5.14;75.09
65718;BME280;52445;52.466;-1.016;2023-02-28T02:58:51;101954.56;;;5.13;75.09
65718;BME280;52445;52.466;-1.016;2023-02-28T03:01:23;101958.84;;;5.12;74.89
65718;BME280;52445;52.466;-1.016;2023-02-28T03:04:06;101957.09;;;5.11;74.95
65718;BME280;52445;52.466;-1.016;2023-02-28T03:06:34;101957.88;;;5.10;74.74
65718;BME280;52445;52.466;-1.016;2023-02-28T03:09:02;101957.88;;;5.10;75.50
65718;BME280;52445;52.466;-1.016;2023-02-28T03:11:29;101949.31;;;5.10;75.35
65718;BME280;52445;52.466;-1.016;2023-02-28T03:16:46;101955.31;;;5.10;74.83
65718;BME280;52445;52.466;-1.016;2023-02-28T03:27:24;101961.16;;;5.08;74.68
65718;BME280;52445;52.466;-1.016;2023-02-28T03:30:09;101956.94;;;5.08;75.23
65718;BME280;52445;52.466;-1.016;2023-02-28T03:32:57;101958.53;;;5.06;74.94
65718;BME280;52445;52.466;-1.016;2023-02-28T03:35:29;101964.56;;;5.07;74.79
65718;BME280;52445;52.466;-1.016;2023-02-28T03:38:05;101956.78;;;5.05;75.10
65718;BME280;52445;52.466;-1.016;2023-02-28T03:40:36;101961.91;;;5.05;74.66
65718;BME280;52445;52.466;-1.016;2023-02-28T03:43:09;101964.41;;;5.04;74.96
65718;BME280;52445;52.466;-1.016;2023-02-28T03:45:39;101956.59;;;5.02;75.41
65718;BME280;52445;52.466;-1.016;2023-02-28T03:48:14;101954.84;;;5.01;74.78
65718;BME280;52445;52.466;-1.016;2023-02-28T03:50:44;101955.59;;;4.98;75.06
65718;BME280;52445;52.466;-1.016;2023-02-28T03:55:58;101954.53;;;4.95;74.90
65718;BME280;52445;52.466;-1.016;2023-02-28T04:01:14;101952.44;;;4.87;74.94
65718;BME280;52445;52.466;-1.016;2023-02-28T04:03:42;101958.38;;;4.86;75.39
65718;BME280;52445;52.466;-1.016;2023-02-28T04:06:16;101957.44;;;4.84;75.27
65718;BME280;52445;52.466;-1.016;2023-02-28T04:08:44;101958.31;;;4.85;75.19
65718;BME280;52445;52.466;-1.016;2023-02-28T04:13:49;101962.59;;;4.84;75.71
65718;BME280;52445;52.466;-1.016;2023-02-28T04:16:16;101967.72;;;4.84;75.76
65718;BME280;52445;52.466;-1.016;2023-02-28T04:19:00;101957.44;;;4.84;75.14
65718;BME280;52445;52.466;-1.016;2023-02-28T04:21:33;101957.44;;;4.84;75.13
65718;BME280;52445;52.466;-1.016;2023-02-28T04:24:02;101950.59;;;4.85;75.52
65718;BME280;52445;52.466;-1.016;2023-02-28T04:26:31;101949.75;;;4.84;75.28
65718;BME280;52445;52.466;-1.016;2023-02-28T04:28:59;101954.06;;;4.85;75.83
65718;BME280;52445;52.466;-1.016;2023-02-28T04:31:26;101945.38;;;4.83;75.27
65718;BME280;52445;52.466;-1.016;2023-02-28T04:33:53;101949.66;;;4.83;75.39
65718;BME280;52445;52.466;-1.016;2023-02-28T04:36:20;101956.63;;;4.85;75.40
65718;BME280;52445;52.466;-1.016;2023-02-28T04:38:49;101958.38;;;4.86;75.33
65718;BME280;52445;52.466;-1.016;2023-02-28T04:41:16;101962.72;;;4.87;74.92
65718;BME280;52445;52.466;-1.016;2023-02-28T04:43:43;101964.50;;;4.88;75.29
65718;BME280;52445;52.466;-1.016;2023-02-28T04:46:10;101976.53;;;4.89;74.82
65718;BME280;52445;52.466;-1.016;2023-02-28T04:48:38;101974.03;;;4.91;75.26
65718;BME280;52445;52.466;-1.016;2023-02-28T04:51:08;101966.25;;;4.89;75.06
65718;BME280;52445;52.466;-1.016;2023-02-28T04:53:36;101966.25;;;4.89;75.62
65718;BME280;52445;52.466;-1.016;2023-02-28T04:56:04;101971.41;;;4.89;74.98
65718;BME280;52445;52.466;-1.016;2023-02-28T04:58:30;101969.63;;;4.88;75.04
65718;BME280;52445;52.466;-1.016;2023-02-28T05:01:26;101969.47;;;4.85;75.42
65718;BME280;52445;52.466;-1.016;2023-02-28T05:03:55;101969.47;;;4.85;75.77
65718;BME280;52445;52.466;-1.016;2023-02-28T05:06:24;101972.84;;;4.84;75.51
65718;BME280;52445;52.466;-1.016;2023-02-28T05:08:52;101964.00;;;4.79;75.91
65718;BME280;52445;52.466;-1.016;2023-02-28T05:13:55;101967.38;;;4.78;76.47
65718;BME280;52445;52.466;-1.016;2023-02-28T05:16:22;101975.91;;;4.77;76.33
65718;BME280;52445;52.466;-1.016;2023-02-28T05:18:49;101971.63;;;4.78;76.39
65718;BME280;52445;52.466;-1.016;2023-02-28T05:21:29;101968.97;;;4.76;76.21
65718;BME280;52445;52.466;-1.016;2023-02-28T05:23:59;101968.19;;;4.77;76.22
65718;BME280;52445;52.466;-1.016;2023-02-28T05:26:26;101972.34;;;4.75;75.97
65718;BME280;52445;52.466;-1.016;2023-02-28T05:28:54;101975.00;;;4.76;76.44
65718;BME280;52445;52.466;-1.016;2023-02-28T05:31:21;101974.09;;;4.76;76.38
65718;BME280;52445;52.466;-1.016;2023-02-28T05:33:48;101976.75;;;4.78;76.04
65718;BME280;52445;52.466;-1.016;2023-02-28T05:36:14;101972.53;;;4.78;76.39
65718;BME280;52445;52.466;-1.016;2023-02-28T05:38:41;101975.09;;;4.78;76.22
65718;BME280;52445;52.466;-1.016;2023-02-28T05:41:09;101968.19;;;4.77;76.34
65718;BME280;52445;52.466;-1.016;2023-02-28T05:43:36;101974.09;;;4.76;75.93
65718;BME280;52445;52.466;-1.016;2023-02-28T05:46:05;101974.19;;;4.78;76.10
65718;BME280;52445;52.466;-1.016;2023-02-28T05:48:34;101968.19;;;4.77;76.30
65718;BME280;52445;52.466;-1.016;2023-02-28T05:51:02;101979.25;;;4.76;75.57
65718;BME280;52445;52.466;-1.016;2023-02-28T05:53:29;101982.78;;;4.78;75.56
65718;BME280;52445;52.466;-1.016;2023-02-28T05:55:56;101979.41;;;4.79;75.34
65718;BME280;52445;52.466;-1.016;2023-02-28T05:58:24;101976.03;;;4.80;75.59
65718;BME280;52445;52.466;-1.016;2023-02-28T06:00:55;101984.72;;;4.82;75.74
65718;BME280;52445;52.466;-1.016;2023-02-28T06:03:22;101982.22;;;4.84;75.97
65718;BME280;52445;52.466;-1.016;2023-02-28T06:05:48;101991.59;;;4.83;75.81
65718;BME280;52445;52.466;-1.016;2023-02-28T06:08:17;101988.25;;;4.84;76.04
65718;BME280;52445;52.466;-1.016;2023-02-28T06:10:44;101992.59;;;4.85;75.73
65718;BME280;52445;52.466;-1.016;2023-02-28T06:13:11;101990.00;;;4.85;75.22
65718;BME280;52445;52.466;-1.016;2023-02-28T06:15:39;101995.16;;;4.85;76.11
65718;BME280;52445;52.466;-1.016;2023-02-28T06:18:06;101999.31;;;4.83;75.71
65718;BME280;52445;52.466;-1.016;2023-02-28T06:20:32;101993.41;;;4.84;75.75
65718;BME280;52445;52.466;-1.016;2023-02-28T06:22:59;101989.03;;;4.83;75.10
65718;BME280;52445;52.466;-1.016;2023-02-28T06:25:27;101982.22;;;4.84;75.27
65718;BME280;52445;52.466;-1.016;2023-02-28T06:27:54;101991.59;;;4.83;76.10
65718;BME280;52445;52.466;-1.016;2023-02-28T06:30:21;101988.25;;;4.84;75.51
65718;BME280;52445;52.466;-1.016;2023-02-28T06:32:52;101988.25;;;4.84;75.43
65718;BME280;52445;52.466;-1.016;2023-02-28T06:35:19;101989.03;;;4.83;75.96
65718;BME280;52445;52.466;-1.016;2023-02-28T06:37:46;101987.38;;;4.84;75.74
65718;BME280;52445;52.466;-1.016;2023-02-28T06:40:13;101985.69;;;4.84;76.03
65718;BME280;52445;52.466;-1.016;2023-02-28T06:42:40;101992.66;;;4.87;75.47
65718;BME280;52445;52.466;-1.016;2023-02-28T06:45:07;101991.78;;;4.86;75.86
65718;BME280;52445;52.466;-1.016;2023-02-28T06:47:37;101990.00;;;4.85;75.43
65718;BME280;52445;52.466;-1.016;2023-02-28T06:50:05;101997.63;;;4.84;76.31
65718;BME280;52445;52.466;-1.016;2023-02-28T06:52:33;101994.00;;;4.80;75.52
65718;BME280;52445;52.466;-1.016;2023-02-28T06:55:04;101989.69;;;4.79;75.60
65718;BME280;52445;52.466;-1.016;2023-02-28T06:57:32;101994.81;;;4.79;76.20
65718;BME280;52445;52.466;-1.016;2023-02-28T07:00:01;101993.88;;;4.77;75.89
65718;BME280;52445;52.466;-1.016;2023-02-28T07:02:29;102000.69;;;4.76;75.79
65718;BME280;52445;52.466;-1.016;2023-02-28T07:04:56;102004.06;;;4.75;76.45
65718;BME280;52445;52.466;-1.016;2023-02-28T07:07:22;102002.13;;;4.71;76.71
65718;BME280;52445;52.466;-1.016;2023-02-28T07:09:49;101996.09;;;4.71;76.96
65718;BME280;52445;52.466;-1.016;2023-02-28T07:12:15;102007.25;;;4.71;76.62
65718;BME280;52445;52.466;-1.016;2023-02-28T07:14:42;102009.91;;;4.73;76.83
65718;BME280;52445;52.466;-1.016;2023-02-28T07:17:09;102007.25;;;4.71;77.45
65718;BME280;52445;52.466;-1.016;2023-02-28T07:19:39;102013.13;;;4.69;77.99
65718;BME280;52445;52.466;-1.016;2023-02-28T07:22:06;102011.50;;;4.71;77.54
65718;BME280;52445;52.466;-1.016;2023-02-28T07:24:33;102019.28;;;4.72;77.78
65718;BME280;52445;52.466;-1.016;2023-02-28T07:27:00;102018.38;;;4.72;78.14
65718;BME280;52445;52.466;-1.016;2023-02-28T07:29:27;102021.94;;;4.74;77.74
65718;BME280;52445;52.466;-1.016;2023-02-28T07:31:54;102022.88;;;4.76;77.78
65718;BME280;52445;52.466;-1.016;2023-02-28T07:34:22;102019.53;;;4.77;77.85
65718;BME280;52445;52.466;-1.016;2023-02-28T07:36:49;102021.38;;;4.80;77.38
65718;BME280;52445;52.466;-1.016;2023-02-28T07:39:20;102023.22;;;4.82;77.40
65718;BME280;52445;52.466;-1.016;2023-02-28T07:41:47;102027.38;;;4.80;78.48
65718;BME280;52445;52.466;-1.016;2023-02-28T07:44:14;102023.22;;;4.82;77.84
65718;BME280;52445;52.466;-1.016;2023-02-28T07:46:40;102023.31;;;4.84;77.97
65718;BME280;52445;52.466;-1.016;2023-02-28T07:49:07;102029.34;;;4.84;77.67
65718;BME280;52445;52.466;-1.016;2023-02-28T07:51:34;102027.72;;;4.86;78.16
65718;BME280;52445;52.466;-1.016;2023-02-28T07:54:00;102039.75;;;4.87;78.12
65718;BME280;52445;52.466;-1.016;2023-02-28T07:56:27;102038.16;;;4.89;78.23
65718;BME280;52445;52.466;-1.016;2023-02-28T07:58:54;102036.53;;;4.92;77.90
65718;BME280;52445;52.466;-1.016;2023-02-28T08:01:21;102039.19;;;4.93;77.98
65718;BME280;52445;52.466;-1.016;2023-02-28T08:03:48;102031.56;;;4.95;78.13
65718;BME280;52445;52.466;-1.016;2023-02-28T08:06:18;102028.34;;;4.99;78.12
65718;BME280;52445;52.466;-1.016;2023-02-28T08:08:47;102021.63;;;5.01;78.11
65718;BME280;52445;52.466;-1.016;2023-02-28T08:11:14;102032.06;;;5.04;76.95
65718;BME280;52445;52.466;-1.016;2023-02-28T08:13:42;102025.31;;;5.06;77.01
65718;BME280;52445;52.466;-1.016;2023-02-28T08:16:11;102021.22;;;5.10;77.48
65718;BME280;52445;52.466;-1.016;2023-02-28T08:18:40;102029.88;;;5.12;77.77
65718;BME280;52445;52.466;-1.016;2023-02-28T08:21:08;102027.41;;;5.13;77.08
65718;BME280;52445;52.466;-1.016;2023-02-28T08:23:36;102023.22;;;5.16;77.70
65718;BME280;52445;52.466;-1.016;2023-02-28T08:26:03;102026.84;;;5.19;77.80
65718;BME280;52445;52.466;-1.016;2023-02-28T08:28:30;102020.00;;;5.20;76.82
65718;BME280;52445;52.466;-1.016;2023-02-28T08:30:58;102026.25;;;5.25;76.89
65718;BME280;52445;52.466;-1.016;2023-02-28T08:33:26;102020.31;;;5.26;77.75
65718;BME280;52445;52.466;-1.016;2023-02-28T08:35:55;102022.16;;;5.28;77.58
65718;BME280;52445;52.466;-1.016;2023-02-28T08:38:22;102018.78;;;5.30;77.12
65718;BME280;52445;52.466;-1.016;2023-02-28T08:40:49;102017.97;;;5.31;77.35
65718;BME280;52445;52.466;-1.016;2023-02-28T08:43:16;102012.03;;;5.32;77.59
65718;BME280;52445;52.466;-1.016;2023-02-28T08:45:42;102018.97;;;5.33;77.33
65718;BME280;52445;52.466;-1.016;2023-02-28T08:48:09;102016.44;;;5.34;77.16
65718;BME280;52445;52.466;-1.016;2023-02-28T08:50:36;102021.75;;;5.37;76.78
65718;BME280;52445;52.466;-1.016;2023-02-28T08:53:02;102014.09;;;5.39;77.13
65718;BME280;52445;52.466;-1.016;2023-02-28T08:55:29;102013.38;;;5.42;76.42
65718;BME280;52445;52.466;-1.016;2023-02-28T08:57:56;102015.28;;;5.46;76.99
65718;BME280;52445;52.466;-1.016;2023-02-28T09:00:22;102017.22;;;5.50;76.63
65718;BME280;52445;52.466;-1.016;2023-02-28T09:02:49;102020.00;;;5.55;77.23
65718;BME280;52445;52.466;-1.016;2023-02-28T09:05:16;102012.53;;;5.59;77.47
65718;BME280;52445;52.466;-1.016;2023-02-28T09:07:42;102015.28;;;5.62;76.54
65718;BME280;52445;52.466;-1.016;2023-02-28T09:10:09;102021.34;;;5.64;76.34
65718;BME280;52445;52.466;-1.016;2023-02-28T09:12:36;102019.75;;;5.66;77.12
65718;BME280;52445;52.466;-1.016;2023-02-28T09:15:03;102024.97;;;5.68;77.57
65718;BME280;52445;52.466;-1.016;2023-02-28T09:17:30;102018.22;;;5.70;76.82
65718;BME280;52445;52.466;-1.016;2023-02-28T09:19:57;102017.38;;;5.71;76.73
65718;BME280;52445;52.466;-1.016;2023-02-28T09:22:24;102022.63;;;5.73;76.18
65718;BME280;52445;52.466;-1.016;2023-02-28T09:24:51;102023.59;;;5.75;77.14
65718;BME280;52445;52.466;-1.016;2023-02-28T09:27:18;102027.09;;;5.77;77.28
65718;BME280;52445;52.466;-1.016;2023-02-28T09:29:44;102018.59;;;5.78;77.13
65718;BME280;52445;52.466;-1.016;2023-02-28T09:32:11;102019.47;;;5.78;76.47
65718;BME280;52445;52.466;-1.016;2023-02-28T09:34:38;102020.34;;;5.79;77.04
65718;BME280;52445;52.466;-1.016;2023-02-28T09:37:04;102018.72;;;5.81;77.35
65718;BME280;52445;52.466;-1.016;2023-02-28T09:39:31;102017.13;;;5.83;77.17
65718;BME280;52445;52.466;-1.016;2023-02-28T09:41:58;102020.78;;;5.88;76.40
65718;BME280;52445;52.466;-1.016;2023-02-28T09:44:44;102022.56;;;5.89;76.32
65718;BME280;52445;52.466;-1.016;2023-02-28T09:49:55;102021.25;;;5.98;77.81
65718;BME280;52445;52.466;-1.016;2023-02-28T09:52:29;102021.41;;;6.01;76.45
65718;BME280;52445;52.466;-1.016;2023-02-28T09:55:10;102018.13;;;6.03;77.60
65718;BME280;52445;52.466;-1.016;2023-02-28T09:57:42;102018.84;;;6.01;77.64
65718;BME280;52445;52.466;-1.016;2023-02-28T10:05:54;102014.31;;;5.97;76.81
65718;BME280;52445;52.466;-1.016;2023-02-28T10:08:27;102015.94;;;5.95;76.43
65718;BME280;52445;52.466;-1.016;2023-02-28T10:10:57;102023.91;;;5.99;77.35
65718;BME280;52445;52.466;-1.016;2023-02-28T10:13:34;102017.84;;;5.99;77.05
65718;BME280;52445;52.466;-1.016;2023-02-28T10:16:14;102021.25;;;5.98;76.47
65718;BME280;52445;52.466;-1.016;2023-02-28T10:18:48;102009.47;;;6.03;77.39
65718;BME280;52445;52.466;-1.016;2023-02-28T10:21:23;102018.19;;;6.05;77.02
65718;BME280;52445;52.466;-1.016;2023-02-28T10:23:55;102018.41;;;6.10;76.88
65718;BME280;52445;52.466;-1.016;2023-02-28T10:26:26;102016.88;;;6.13;76.63
65718;BME280;52445;52.466;-1.016;2023-02-28T10:28:55;102017.72;;;6.14;77.46
65718;BME280;52445;52.466;-1.016;2023-02-28T10:31:22;102021.34;;;6.17;76.94
65718;BME280;52445;52.466;-1.016;2023-02-28T10:33:51;102017.44;;;6.26;76.45
65718;BME280;52445;52.466;-1.016;2023-02-28T10:36:20;102010.03;;;6.32;77.05
65718;BME280;52445;52.466;-1.016;2023-02-28T10:38:47;102001.75;;;6.39;76.27
65718;BME280;52445;52.466;-1.016;2023-02-28T10:41:19;102013.16;;;6.45;76.68
65718;BME280;52445;52.466;-1.016;2023-02-28T10:46:42;102004.63;;;6.46;76.76
65718;BME280;52445;52.466;-1.016;2023-02-28T10:49:17;102007.13;;;6.44;77.09
65718;BME280;52445;52.466;-1.016;2023-02-28T10:51:47;102006.38;;;6.47;77.36
65718;BME280;52445;52.466;-1.016;2023-02-28T10:54:19;102003.94;;;6.50;77.07
65718;BME280;52445;52.466;-1.016;2023-02-28T10:59:51;101997.94;;;6.69;76.00
65718;BME280;52445;52.466;-1.016;2023-02-28T11:02:31;102005.84;;;6.74;77.51
65718;BME280;52445;52.466;-1.016;2023-02-28T11:05:00;101998.19;;;6.75;76.23
65718;BME280;52445;52.466;-1.016;2023-02-28T11:07:27;101996.78;;;6.82;76.96
65718;BME280;52445;52.466;-1.016;2023-02-28T11:10:06;101993.34;;;6.81;76.01
65718;BME280;52445;52.466;-1.016;2023-02-28T11:12:38;102002.06;;;6.85;75.39
65718;BME280;52445;52.466;-1.016;2023-02-28T11:17:59;101993.78;;;6.92;75.75
65718;BME280;52445;52.466;-1.016;2023-02-28T11:20:30;101987.81;;;6.93;75.49
65718;BME280;52445;52.466;-1.016;2023-02-28T11:22:58;101990.16;;;6.87;74.68
65718;BME280;52445;52.466;-1.016;2023-02-28T11:25:31;101987.81;;;6.93;75.36
65718;BME280;52445;52.466;-1.016;2023-02-28T11:28:01;101985.53;;;7.00;75.81
65718;BME280;52445;52.466;-1.016;2023-02-28T11:30:38;101981.44;;;7.05;75.87
65718;BME280;52445;52.466;-1.016;2023-02-28T11:33:27;101983.88;;;7.22;75.55
65718;BME280;52445;52.466;-1.016;2023-02-28T11:36:01;101981.66;;;7.31;75.24
65718;BME280;52445;52.466;-1.016;2023-02-28T11:38:29;101979.09;;;7.31;74.43
65718;BME280;52445;52.466;-1.016;2023-02-28T11:41:10;101972.06;;;7.27;73.91
65718;BME280;52445;52.466;-1.016;2023-02-28T11:57:30;101964.56;;;7.12;75.52
65718;BME280;52445;52.466;-1.016;2023-02-28T12:05:44;101960.00;;;7.26;76.27
65718;BME280;52445;52.466;-1.016;2023-02-28T12:11:24;101961.25;;;7.57;75.59
65718;BME280;52445;52.466;-1.016;2023-02-28T12:22:27;101957.28;;;7.23;75.95
65718;BME280;52445;52.466;-1.016;2023-02-28T12:25:21;101950.31;;;7.20;76.65
65718;BME280;52445;52.466;-1.016;2023-02-28T12:27:51;101951.03;;;7.17;76.51
65718;BME280;52445;52.466;-1.016;2023-02-28T12:30:23;101952.25;;;7.26;75.46
65718;BME280;52445;52.466;-1.016;2023-02-28T12:32:55;101941.13;;;7.27;76.28
65718;BME280;52445;52.466;-1.016;2023-02-28T12:35:32;101938.69;;;7.30;75.95
65718;BME280;52445;52.466;-1.016;2023-02-28T12:40:52;101933.19;;;7.22;75.49
65718;BME280;52445;52.466;-1.016;2023-02-28T12:43:22;101934.09;;;7.23;75.61
65718;BME280;52445;52.466;-1.016;2023-02-28T12:45:56;101921.75;;;7.15;75.16
65718;BME280;52445;52.466;-1.016;2023-02-28T12:48:44;101917.56;;;6.98;75.45
65718;BME280;52445;52.466;-1.016;2023-02-28T12:51:15;101917.03;;;7.05;75.85
65718;BME280;52445;52.466;-1.016;2023-02-28T13:10:40;101920.78;;;7.13;76.53
65718;BME280;52445;52.466;-1.016;2023-02-28T13:13:14;101922.66;;;7.16;75.33
65718;BME280;52445;52.466;-1.016;2023-02-28T13:18:38;101909.06;;;7.20;75.73
65718;BME280;52445;52.466;-1.016;2023-02-28T13:21:07;101902.75;;;7.13;76.94
65718;BME280;52445;52.466;-1.016;2023-02-28T13:37:44;101882.34;;;7.62;74.61
65718;BME280;52445;52.466;-1.016;2023-02-28T13:42:48;101874.03;;;7.69;75.13
65718;BME280;52445;52.466;-1.016;2023-02-28T13:45:23;101881.06;;;7.74;74.46
65718;BME280;52445;52.466;-1.016;2023-02-28T13:48:18;101878.38;;;7.70;74.11
65718;BME280;52445;52.466;-1.016;2023-02-28T13:50:45;101877.78;;;7.78;74.19
65718;BME280;52445;52.466;-1.016;2023-02-28T13:56:27;101885.19;;;7.68;74.53
65718;BME280;52445;52.466;-1.016;2023-02-28T14:07:29;101866.88;;;7.62;74.39
65718;BME280;52445;52.466;-1.016;2023-02-28T14:10:03;101873.50;;;7.55;75.08
65718;BME280;52445;52.466;-1.016;2023-02-28T14:15:40;101866.88;;;7.62;74.70
65718;BME280;52445;52.466;-1.016;2023-02-28T14:20:57;101868.75;;;7.66;73.72
65718;BME280;52445;52.466;-1.016;2023-02-28T14:29:21;101863.34;;;7.60;75.18
65718;BME280;52445;52.466;-1.016;2023-02-28T14:37:15;101843.09;;;7.69;74.48
65718;BME280;52445;52.466;-1.016;2023-02-28T14:39:43;101841.44;;;7.71;75.23
65718;BME280;52445;52.466;-1.016;2023-02-28T14:42:28;101836.19;;;7.68;75.88
65718;BME280;52445;52.466;-1.016;2023-02-28T14:44:56;101833.75;;;7.73;75.60
65718;BME280;52445;52.466;-1.016;2023-02-28T14:47:27;101825.31;;;7.77;74.61
65718;BME280;52445;52.466;-1.016;2023-02-28T14:49:55;101825.44;;;7.80;74.48
65718;BME280;52445;52.466;-1.016;2023-02-28T14:52:24;101826.59;;;7.89;75.57
65718;BME280;52445;52.466;-1.016;2023-02-28T14:54:55;101821.63;;;7.93;74.72
65718;BME280;52445;52.466;-1.016;2023-02-28T14:57:25;101809.53;;;7.92;74.52
65718;BME280;52445;52.466;-1.016;2023-02-28T15:00:13;101813.53;;;7.84;74.46
65718;BME280;52445;52.466;-1.016;2023-02-28T15:02:41;101807.56;;;7.85;73.51
65718;BME280;52445;52.466;-1.016;2023-02-28T15:10:37;101808.59;;;7.67;74.19
65718;BME280;52445;52.466;-1.016;2023-02-28T15:13:10;101814.00;;;7.74;75.51
65718;BME280;52445;52.466;-1.016;2023-02-28T15:21:15;101800.66;;;7.61;74.73
65718;BME280;52445;52.466;-1.016;2023-02-28T15:23:48;101792.03;;;7.61;74.27
65718;BME280;52445;52.466;-1.016;2023-02-28T15:26:19;101797.97;;;7.58;74.39
65718;BME280;52445;52.466;-1.016;2023-02-28T15:28:59;101797.84;;;7.55;74.88
65718;BME280;52445;52.466;-1.016;2023-02-28T15:31:29;101801.38;;;7.57;74.92
65718;BME280;52445;52.466;-1.016;2023-02-28T15:34:19;101802.94;;;7.53;75.35
65718;BME280;52445;52.466;-1.016;2023-02-28T15:36:48;101805.56;;;7.55;74.44
65718;BME280;52445;52.466;-1.016;2023-02-28T15:39:21;101809.03;;;7.55;74.64
65718;BME280;52445;52.466;-1.016;2023-02-28T15:41:48;101808.47;;;7.63;73.77
65718;BME280;52445;52.466;-1.016;2023-02-28T15:44:26;101802.41;;;7.62;74.70
65718;BME280;52445;52.466;-1.016;2023-02-28T15:49:38;101809.97;;;8.05;73.69
65718;BME280;52445;52.466;-1.016;2023-02-28T15:52:14;101802.41;;;7.85;74.62
65718;BME280;52445;52.466;-1.016;2023-02-28T15:54:43;101805.56;;;7.78;73.91
65718;BME280;52445;52.466;-1.016;2023-02-28T15:57:15;101795.78;;;7.69;74.77
65718;BME280;52445;52.466;-1.016;2023-02-28T15:59:51;101797.97;;;7.58;74.51
65718;BME280;52445;52.466;-1.016;2023-02-28T16:02:21;101797.06;;;7.57;73.72